Coaldale, Canada
Current Conditions -  °F | °C
As of 4:00 PM on Monday 20 Oct 2014 (Local Time) from CYQL Reporting Station
Few Clouds Few Clouds  
Wind Chill: 77°   Ceiling: Unl
Heat Index: 77°   Visibility: 40mi
Dew Point: 25°   Wind: 18mph
Humidity: 14%   Direction: 240°WSW
Pressure: 29.66"   Gusts: 24mph
Location:  49.73°N, 112.6°W
Report Text: CYQL 202200Z 24016G21KT 40SM FEW060 FEW160 25/M04 A2966 RMK CF1AC1 CF TR AC TR SLP041 DENSITY ALT 5100FT
Loading
Personal Weather Stations






























Interactive Weather Map
Tropical Storm Tracking
New forecast layout! Learn more

10-Day Weather Forecast

Advertisements
Track Severe Weather on mobile